Time;durP1;ratioP1;P1;durP2;ratioP2;P2;SDS_P1;SDS_P2;PMS_P1;PMS_P2;Temp;Humidity;BMP_temperature;BMP_pressure;BME280_temperature;BME280_humidity;BME280_pressure;Samples;Min_cycle;Max_cycle;Signal;HPM_P1;HPM_P2
2021/05/01 00:00:22;;;;;;;;;;;21.50;39.40;;;;;;471778;253;2186;-69
2021/05/01 00:02:23;;;;;;;;;;;21.50;39.40;;;;;;471828;253;1127;-68
2021/05/01 00:04:24;;;;;;;;;;;21.50;39.40;;;;;;471837;253;1222;-68
2021/05/01 00:06:26;;;;;;;;;;;21.50;39.30;;;;;;471784;253;1239;-68
2021/05/01 00:08:28;;;;;;;;;;;21.50;39.40;;;;;;471940;253;1028;-68
2021/05/01 00:10:29;;;;;;;;;;;21.50;39.40;;;;;;471848;253;1215;-69
2021/05/01 00:12:31;;;;;;;;;;;21.50;39.30;;;;;;471929;253;1125;-68
2021/05/01 00:14:32;;;;;;;;;;;21.40;39.40;;;;;;471919;253;1040;-68
2021/05/01 00:16:33;;;;;;;;;;;21.40;39.60;;;;;;471835;253;1391;-69
2021/05/01 00:18:35;;;;;;;;;;;21.30;39.60;;;;;;471853;253;1033;-68
2021/05/01 00:20:36;;;;;;;;;;;21.30;39.60;;;;;;471786;253;2198;-69
2021/05/01 00:22:37;;;;;;;;;;;21.30;39.60;;;;;;471831;253;1058;-68
2021/05/01 00:24:38;;;;;;;;;;;21.40;39.60;;;;;;471853;253;961;-68
2021/05/01 00:26:41;;;;;;;;;;;21.30;39.60;;;;;;471811;253;1056;-68
2021/05/01 00:28:41;;;;;;;;;;;21.40;39.50;;;;;;471786;253;1386;-68
2021/05/01 00:30:42;;;;;;;;;;;21.30;39.60;;;;;;471912;253;978;-68
2021/05/01 00:32:44;;;;;;;;;;;21.30;39.70;;;;;;471888;253;1044;-68
2021/05/01 00:34:45;;;;;;;;;;;21.30;39.60;;;;;;471934;253;1170;-68
2021/05/01 00:36:46;;;;;;;;;;;21.30;39.60;;;;;;471911;253;1034;-68
2021/05/01 00:38:47;;;;;;;;;;;21.30;39.60;;;;;;471892;253;1013;-68
2021/05/01 00:40:49;;;;;;;;;;;21.40;39.50;;;;;;471926;253;2183;-69
2021/05/01 00:42:50;;;;;;;;;;;21.40;39.50;;;;;;471865;253;984;-68
2021/05/01 00:44:51;;;;;;;;;;;21.40;39.40;;;;;;471833;253;1054;-69
2021/05/01 00:46:53;;;;;;;;;;;21.40;39.40;;;;;;471832;253;1024;-68
2021/05/01 00:48:54;;;;;;;;;;;21.40;39.30;;;;;;471773;253;1219;-68
2021/05/01 00:50:55;;;;;;;;;;;21.40;39.40;;;;;;471795;253;1313;-69
2021/05/01 00:52:56;;;;;;;;;;;21.40;39.30;;;;;;471791;253;1226;-68
2021/05/01 00:54:58;;;;;;;;;;;21.40;39.40;;;;;;471775;253;1008;-68
2021/05/01 00:56:59;;;;;;;;;;;21.30;39.40;;;;;;471860;253;968;-69
2021/05/01 00:59:00;;;;;;;;;;;21.40;39.40;;;;;;471949;253;1035;-68
2021/05/01 01:03:31;;;;;;;;;;;21.40;39.40;;;;;;469586;252;1258;-69
2021/05/01 01:05:32;;;;;;;;;;;21.40;39.40;;;;;;471913;253;1196;-68
2021/05/01 01:07:34;;;;;;;;;;;21.50;39.20;;;;;;471914;253;1047;-68
2021/05/01 01:09:35;;;;;;;;;;;21.30;39.40;;;;;;471880;253;1216;-68
2021/05/01 01:11:36;;;;;;;;;;;21.30;39.30;;;;;;471831;253;1024;-68
2021/05/01 01:13:38;;;;;;;;;;;21.40;39.40;;;;;;471826;253;979;-68
2021/05/01 01:15:39;;;;;;;;;;;21.40;39.30;;;;;;471868;253;1046;-69
2021/05/01 01:17:40;;;;;;;;;;;21.40;39.40;;;;;;471808;253;1073;-68
2021/05/01 01:19:41;;;;;;;;;;;21.40;39.40;;;;;;471800;253;2210;-68
2021/05/01 01:21:43;;;;;;;;;;;21.40;39.40;;;;;;471799;253;1209;-68
2021/05/01 01:23:44;;;;;;;;;;;21.50;39.20;;;;;;471888;253;1146;-68
2021/05/01 01:25:45;;;;;;;;;;;21.50;39.20;;;;;;471835;253;1172;-68
2021/05/01 01:27:47;;;;;;;;;;;21.40;39.20;;;;;;471922;253;1188;-68
2021/05/01 01:29:48;;;;;;;;;;;21.40;39.40;;;;;;471892;253;962;-68
2021/05/01 01:31:49;;;;;;;;;;;21.40;39.30;;;;;;471955;253;1364;-68
2021/05/01 01:33:50;;;;;;;;;;;21.40;39.30;;;;;;471866;253;979;-69
2021/05/01 01:35:52;;;;;;;;;;;21.40;39.40;;;;;;471926;253;1313;-68
2021/05/01 01:37:53;;;;;;;;;;;21.30;39.40;;;;;;471811;253;1133;-68
2021/05/01 01:39:54;;;;;;;;;;;21.30;39.40;;;;;;471754;253;2198;-68
2021/05/01 01:41:55;;;;;;;;;;;21.30;39.50;;;;;;471780;253;1121;-68
2021/05/01 01:43:57;;;;;;;;;;;21.30;39.50;;;;;;471830;253;1020;-68
2021/05/01 01:46:00;;;;;;;;;;;21.30;39.50;;;;;;471805;253;993;-68
2021/05/01 01:48:00;;;;;;;;;;;21.30;39.50;;;;;;471754;253;1461;-68
2021/05/01 01:50:01;;;;;;;;;;;21.30;39.50;;;;;;471884;253;997;-68
2021/05/01 01:52:02;;;;;;;;;;;21.40;39.50;;;;;;471785;247;1374;-68
2021/05/01 01:54:04;;;;;;;;;;;21.40;39.40;;;;;;471859;253;1053;-68
2021/05/01 01:56:05;;;;;;;;;;;21.30;39.50;;;;;;471870;253;1127;-69
2021/05/01 01:58:06;;;;;;;;;;;21.20;39.60;;;;;;471889;253;1280;-68
2021/05/01 02:00:07;;;;;;;;;;;21.10;39.70;;;;;;471905;253;2139;-69
2021/05/01 02:02:09;;;;;;;;;;;21.20;39.80;;;;;;471935;253;1171;-68
2021/05/01 02:04:10;;;;;;;;;;;21.10;39.70;;;;;;471820;253;1046;-68
2021/05/01 02:06:11;;;;;;;;;;;21.30;39.60;;;;;;471746;253;1269;-68
2021/05/01 02:08:12;;;;;;;;;;;21.20;39.50;;;;;;471637;253;1136;-68
2021/05/01 02:10:14;;;;;;;;;;;21.20;39.60;;;;;;471719;253;1082;-68
2021/05/01 02:12:15;;;;;;;;;;;21.20;39.70;;;;;;471811;253;1217;-68
2021/05/01 02:14:16;;;;;;;;;;;21.10;39.70;;;;;;471868;253;1206;-68
2021/05/01 02:16:18;;;;;;;;;;;21.20;39.60;;;;;;471862;253;1108;-68
2021/05/01 02:18:19;;;;;;;;;;;21.20;39.60;;;;;;471910;253;964;-68
2021/05/01 02:20:20;;;;;;;;;;;21.20;39.60;;;;;;471897;253;2190;-69
2021/05/01 02:22:22;;;;;;;;;;;21.30;39.60;;;;;;471854;253;1206;-69
2021/05/01 02:24:23;;;;;;;;;;;21.10;39.60;;;;;;471853;253;974;-70
2021/05/01 02:26:24;;;;;;;;;;;21.10;39.80;;;;;;471775;253;1111;-68
2021/05/01 02:28:25;;;;;;;;;;;21.00;39.80;;;;;;471873;253;1005;-68
2021/05/01 02:30:27;;;;;;;;;;;21.10;39.80;;;;;;471812;253;1106;-69
2021/05/01 02:32:28;;;;;;;;;;;21.00;39.70;;;;;;471744;249;1232;-68
2021/05/01 02:34:30;;;;;;;;;;;21.10;39.90;;;;;;471811;253;988;-68
2021/05/01 02:36:31;;;;;;;;;;;21.10;39.80;;;;;;471704;253;1196;-69
2021/05/01 02:38:32;;;;;;;;;;;21.00;39.80;;;;;;471778;253;1109;-68
2021/05/01 02:40:34;;;;;;;;;;;21.10;39.70;;;;;;471787;253;2207;-68
2021/05/01 02:42:35;;;;;;;;;;;21.00;39.90;;;;;;471753;253;1524;-68
2021/05/01 02:44:36;;;;;;;;;;;21.00;40.00;;;;;;471895;253;980;-68
2021/05/01 02:46:37;;;;;;;;;;;21.00;40.00;;;;;;471889;253;975;-69
2021/05/01 02:48:39;;;;;;;;;;;21.10;39.90;;;;;;471874;253;1125;-68
2021/05/01 02:50:40;;;;;;;;;;;21.10;39.80;;;;;;471878;253;1151;-68
2021/05/01 02:52:41;;;;;;;;;;;21.10;39.70;;;;;;471849;253;1197;-68
2021/05/01 02:54:43;;;;;;;;;;;21.10;39.80;;;;;;471890;253;1060;-68
2021/05/01 02:56:44;;;;;;;;;;;21.20;39.60;;;;;;471882;253;1131;-68
2021/05/01 02:58:45;;;;;;;;;;;21.10;39.70;;;;;;471764;253;1009;-68
2021/05/01 03:00:46;;;;;;;;;;;21.10;39.70;;;;;;471787;253;2210;-69
2021/05/01 03:02:48;;;;;;;;;;;21.10;39.70;;;;;;471805;253;1197;-68
2021/05/01 03:04:49;;;;;;;;;;;21.10;39.60;;;;;;471781;245;1342;-68
2021/05/01 03:06:50;;;;;;;;;;;21.00;39.80;;;;;;471784;253;1217;-68
2021/05/01 03:08:51;;;;;;;;;;;21.10;39.70;;;;;;471805;253;1088;-68
2021/05/01 03:10:53;;;;;;;;;;;21.20;39.50;;;;;;471807;253;1212;-68
2021/05/01 03:12:54;;;;;;;;;;;21.20;39.60;;;;;;471832;253;1171;-68
2021/05/01 03:14:55;;;;;;;;;;;21.10;39.60;;;;;;471875;253;1079;-69
2021/05/01 03:16:57;;;;;;;;;;;21.20;39.60;;;;;;471896;253;1185;-68
2021/05/01 03:18:58;;;;;;;;;;;21.30;39.40;;;;;;471825;253;997;-69
2021/05/01 03:20:59;;;;;;;;;;;21.40;39.20;;;;;;471826;253;2202;-68
2021/05/01 03:23:01;;;;;;;;;;;21.50;39.00;;;;;;471880;253;1196;-68
2021/05/01 03:25:02;;;;;;;;;;;21.50;39.10;;;;;;471738;253;1112;-68
2021/05/01 03:27:03;;;;;;;;;;;21.40;39.20;;;;;;471757;253;1328;-68
2021/05/01 03:29:05;;;;;;;;;;;21.30;39.30;;;;;;471809;253;1047;-68
2021/05/01 03:31:06;;;;;;;;;;;21.30;39.50;;;;;;471786;253;1072;-68
2021/05/01 03:33:07;;;;;;;;;;;21.40;39.30;;;;;;471681;253;1230;-68
2021/05/01 03:35:08;;;;;;;;;;;21.50;39.20;;;;;;471805;253;1021;-69
2021/05/01 03:37:10;;;;;;;;;;;21.50;39.10;;;;;;471831;253;1179;-68
2021/05/01 03:39:11;;;;;;;;;;;21.60;39.00;;;;;;471879;253;942;-68
2021/05/01 03:41:12;;;;;;;;;;;21.60;38.80;;;;;;471792;253;2202;-70
2021/05/01 03:43:13;;;;;;;;;;;21.70;38.80;;;;;;471840;253;1107;-68
2021/05/01 03:45:15;;;;;;;;;;;21.90;38.40;;;;;;471907;253;1272;-68
2021/05/01 03:47:16;;;;;;;;;;;22.20;38.00;;;;;;471902;253;1222;-68
2021/05/01 03:49:17;;;;;;;;;;;22.40;37.50;;;;;;471860;253;956;-69
2021/05/01 03:51:18;;;;;;;;;;;22.40;37.40;;;;;;471746;253;1150;-69
2021/05/01 03:53:21;;;;;;;;;;;22.50;37.20;;;;;;471852;253;1226;-68
2021/05/01 03:55:21;;;;;;;;;;;22.70;37.10;;;;;;471719;253;1381;-68
2021/05/01 03:57:22;;;;;;;;;;;22.60;37.10;;;;;;471799;253;1221;-68
2021/05/01 03:59:24;;;;;;;;;;;22.60;37.10;;;;;;471795;253;1104;-68
2021/05/01 04:01:25;;;;;;;;;;;22.70;37.00;;;;;;471750;253;2194;-68
2021/05/01 04:03:26;;;;;;;;;;;22.70;37.00;;;;;;471818;253;1064;-68
2021/05/01 04:05:28;;;;;;;;;;;22.70;37.00;;;;;;471864;253;1210;-68
2021/05/01 04:07:29;;;;;;;;;;;22.60;37.10;;;;;;471815;253;1089;-68
2021/05/01 04:09:30;;;;;;;;;;;22.60;37.00;;;;;;471822;253;1080;-68
2021/05/01 04:11:31;;;;;;;;;;;22.60;37.10;;;;;;471797;249;1230;-68
2021/05/01 04:13:33;;;;;;;;;;;22.60;37.10;;;;;;471861;253;1160;-68
2021/05/01 04:15:34;;;;;;;;;;;22.60;37.00;;;;;;471838;253;997;-68
2021/05/01 04:17:35;;;;;;;;;;;22.60;37.10;;;;;;471787;253;1169;-68
2021/05/01 04:19:36;;;;;;;;;;;22.70;37.20;;;;;;471773;253;980;-68
2021/05/01 04:21:38;;;;;;;;;;;22.70;37.10;;;;;;471796;253;2187;-68
2021/05/01 04:23:39;;;;;;;;;;;22.70;37.20;;;;;;471824;253;1194;-68
2021/05/01 04:25:40;;;;;;;;;;;22.70;37.10;;;;;;471819;253;1289;-69
2021/05/01 04:27:42;;;;;;;;;;;22.70;37.10;;;;;;471859;253;1218;-68
2021/05/01 04:29:43;;;;;;;;;;;22.70;37.10;;;;;;471842;253;1028;-69
2021/05/01 04:31:44;;;;;;;;;;;22.70;37.10;;;;;;471877;253;1210;-68
2021/05/01 04:33:45;;;;;;;;;;;22.70;37.00;;;;;;471856;253;1050;-69
2021/05/01 04:35:47;;;;;;;;;;;22.60;37.10;;;;;;471825;253;1241;-69
2021/05/01 04:37:48;;;;;;;;;;;22.60;37.10;;;;;;471839;253;1285;-69
2021/05/01 04:39:49;;;;;;;;;;;22.70;37.10;;;;;;471868;253;1089;-68
2021/05/01 04:41:51;;;;;;;;;;;22.70;36.90;;;;;;471822;253;2127;-68
2021/05/01 04:43:52;;;;;;;;;;;22.80;37.00;;;;;;471806;253;1016;-68
2021/05/01 04:45:53;;;;;;;;;;;22.90;36.80;;;;;;471805;253;1241;-69
2021/05/01 04:47:54;;;;;;;;;;;22.80;36.80;;;;;;471852;253;981;-68
2021/05/01 04:49:56;;;;;;;;;;;22.80;36.90;;;;;;471856;253;1047;-69
2021/05/01 04:51:57;;;;;;;;;;;22.70;37.10;;;;;;471835;253;1119;-68
2021/05/01 04:53:58;;;;;;;;;;;22.80;37.00;;;;;;471845;252;1189;-68
2021/05/01 04:56:00;;;;;;;;;;;22.70;37.00;;;;;;471870;253;1300;-68
2021/05/01 04:58:01;;;;;;;;;;;22.70;37.00;;;;;;471865;253;1229;-69
2021/05/01 05:00:02;;;;;;;;;;;22.80;37.00;;;;;;471875;253;981;-69
2021/05/01 05:02:03;;;;;;;;;;;22.80;36.90;;;;;;471805;253;2155;-69
2021/05/01 05:04:05;;;;;;;;;;;22.80;37.00;;;;;;471904;253;1061;-68
2021/05/01 05:06:06;;;;;;;;;;;22.90;37.00;;;;;;471867;253;1520;-68
2021/05/01 05:08:07;;;;;;;;;;;22.80;36.90;;;;;;471895;253;1112;-69
2021/05/01 05:10:08;;;;;;;;;;;22.90;36.70;;;;;;471853;253;966;-69
2021/05/01 05:12:10;;;;;;;;;;;22.90;36.80;;;;;;471801;253;1165;-69
2021/05/01 05:14:11;;;;;;;;;;;22.80;36.90;;;;;;471838;253;1033;-68
2021/05/01 05:16:12;;;;;;;;;;;22.80;36.80;;;;;;471670;253;1208;-69
2021/05/01 05:18:14;;;;;;;;;;;22.80;37.00;;;;;;471852;253;1216;-68
2021/05/01 05:20:15;;;;;;;;;;;22.90;36.90;;;;;;471824;253;1147;-68
2021/05/01 05:22:16;;;;;;;;;;;22.80;36.90;;;;;;471781;253;2182;-68
2021/05/01 05:24:17;;;;;;;;;;;22.80;36.90;;;;;;471824;253;1218;-69
2021/05/01 05:26:19;;;;;;;;;;;22.80;37.00;;;;;;471792;244;1208;-68
2021/05/01 05:28:20;;;;;;;;;;;22.80;37.00;;;;;;471832;253;1310;-68
2021/05/01 05:30:21;;;;;;;;;;;22.90;36.90;;;;;;471841;253;1102;-69
2021/05/01 05:32:23;;;;;;;;;;;22.90;37.00;;;;;;471807;253;1164;-68
2021/05/01 05:34:24;;;;;;;;;;;22.80;37.00;;;;;;471835;253;1030;-68
2021/05/01 05:36:25;;;;;;;;;;;22.80;37.00;;;;;;471732;252;1350;-69
2021/05/01 05:38:26;;;;;;;;;;;22.90;36.90;;;;;;471817;253;1107;-68
2021/05/01 05:40:28;;;;;;;;;;;22.90;37.00;;;;;;471766;253;1230;-68
2021/05/01 05:42:29;;;;;;;;;;;22.90;36.90;;;;;;471782;253;2202;-68
2021/05/01 05:44:30;;;;;;;;;;;22.90;36.90;;;;;;471790;253;961;-68
2021/05/01 05:46:32;;;;;;;;;;;23.00;36.90;;;;;;471863;252;1236;-69
2021/05/01 05:48:33;;;;;;;;;;;23.00;36.80;;;;;;471926;253;1121;-68
2021/05/01 05:50:34;;;;;;;;;;;23.00;36.70;;;;;;471944;253;1108;-68
2021/05/01 05:52:35;;;;;;;;;;;23.00;36.70;;;;;;471931;253;1230;-69
2021/05/01 05:54:37;;;;;;;;;;;23.00;36.70;;;;;;471839;253;1193;-68
2021/05/01 05:56:38;;;;;;;;;;;23.00;36.60;;;;;;471837;253;1185;-69
2021/05/01 05:58:39;;;;;;;;;;;23.00;36.60;;;;;;471871;253;1405;-68
2021/05/01 06:00:41;;;;;;;;;;;23.00;36.70;;;;;;471861;253;1145;-69
2021/05/01 06:02:42;;;;;;;;;;;23.10;36.60;;;;;;471814;253;2226;-69
2021/05/01 06:04:43;;;;;;;;;;;23.10;36.60;;;;;;471819;253;1116;-68
2021/05/01 06:06:44;;;;;;;;;;;23.20;36.50;;;;;;471811;253;1039;-68
2021/05/01 06:08:46;;;;;;;;;;;23.10;36.60;;;;;;471819;253;1256;-68
2021/05/01 06:10:47;;;;;;;;;;;23.10;36.70;;;;;;471814;253;1177;-68
2021/05/01 06:12:48;;;;;;;;;;;23.10;36.70;;;;;;471756;253;1045;-68
2021/05/01 06:14:50;;;;;;;;;;;23.20;36.60;;;;;;471828;253;974;-68
2021/05/01 06:16:51;;;;;;;;;;;23.10;36.60;;;;;;471835;253;1064;-68
2021/05/01 06:18:52;;;;;;;;;;;23.10;36.70;;;;;;471937;253;1051;-68
2021/05/01 06:20:53;;;;;;;;;;;23.00;36.80;;;;;;471821;253;1112;-68
2021/05/01 06:22:55;;;;;;;;;;;23.10;36.70;;;;;;471948;253;2159;-69
2021/05/01 06:24:56;;;;;;;;;;;23.10;36.70;;;;;;471802;253;1291;-68
2021/05/01 06:26:57;;;;;;;;;;;22.90;37.00;;;;;;471872;253;1273;-69
2021/05/01 06:28:59;;;;;;;;;;;22.80;37.10;;;;;;471813;253;1189;-68
2021/05/01 06:31:00;;;;;;;;;;;22.80;37.20;;;;;;471882;253;1020;-68
2021/05/01 06:33:02;;;;;;;;;;;22.70;37.30;;;;;;471801;253;959;-68
2021/05/01 06:35:03;;;;;;;;;;;22.60;37.30;;;;;;471762;253;1355;-68
2021/05/01 06:37:04;;;;;;;;;;;22.50;37.50;;;;;;471802;253;1187;-68
2021/05/01 06:39:06;;;;;;;;;;;22.50;37.70;;;;;;471789;253;1118;-68
2021/05/01 06:41:07;;;;;;;;;;;22.40;37.90;;;;;;471811;253;1496;-68
2021/05/01 06:43:08;;;;;;;;;;;22.40;38.00;;;;;;471859;253;2178;-68
2021/05/01 06:45:09;;;;;;;;;;;22.40;37.90;;;;;;471865;253;1010;-68
2021/05/01 06:47:10;;;;;;;;;;;22.30;38.00;;;;;;471913;253;964;-69
2021/05/01 06:49:12;;;;;;;;;;;22.20;38.20;;;;;;471931;253;1022;-68
2021/05/01 06:51:13;;;;;;;;;;;22.10;38.40;;;;;;471836;253;1003;-68
2021/05/01 06:53:14;;;;;;;;;;;22.00;38.50;;;;;;471970;253;1133;-69
2021/05/01 06:55:16;;;;;;;;;;;21.90;38.60;;;;;;471847;253;1174;-68
2021/05/01 06:57:17;;;;;;;;;;;22.00;38.60;;;;;;471742;253;1016;-68
2021/05/01 06:59:18;;;;;;;;;;;21.80;38.80;;;;;;471820;253;1047;-68
2021/05/01 07:01:19;;;;;;;;;;;21.90;38.90;;;;;;471824;253;1375;-68
2021/05/01 07:03:21;;;;;;;;;;;21.90;38.80;;;;;;471770;253;2182;-68
2021/05/01 07:05:22;;;;;;;;;;;21.90;38.80;;;;;;471867;253;1077;-69
2021/05/01 07:07:23;;;;;;;;;;;22.00;38.80;;;;;;471805;249;1203;-69
2021/05/01 07:09:25;;;;;;;;;;;21.90;38.90;;;;;;471862;253;1016;-68
2021/05/01 07:11:26;;;;;;;;;;;22.00;38.90;;;;;;471841;253;1284;-68
2021/05/01 07:13:27;;;;;;;;;;;21.90;39.10;;;;;;471910;253;1084;-68
2021/05/01 07:15:28;;;;;;;;;;;21.70;39.20;;;;;;471896;253;1380;-68
2021/05/01 07:17:30;;;;;;;;;;;21.70;39.40;;;;;;471892;253;1089;-68
2021/05/01 07:19:31;;;;;;;;;;;21.80;39.20;;;;;;471854;253;987;-68
2021/05/01 07:21:32;;;;;;;;;;;21.70;39.30;;;;;;471770;252;1160;-68
2021/05/01 07:23:34;;;;;;;;;;;21.80;39.30;;;;;;471834;253;2177;-68
2021/05/01 07:25:35;;;;;;;;;;;21.70;39.30;;;;;;471828;253;1185;-69
2021/05/01 07:27:36;;;;;;;;;;;21.70;39.30;;;;;;471832;253;1127;-68
2021/05/01 07:29:37;;;;;;;;;;;21.80;39.40;;;;;;471811;253;977;-68
2021/05/01 07:31:39;;;;;;;;;;;21.60;39.40;;;;;;471900;244;1209;-68
2021/05/01 07:33:40;;;;;;;;;;;21.70;39.40;;;;;;471813;253;1294;-68
2021/05/01 07:35:41;;;;;;;;;;;21.70;39.40;;;;;;471875;253;1008;-68
2021/05/01 07:37:43;;;;;;;;;;;21.60;39.50;;;;;;471887;253;1343;-68
2021/05/01 07:39:44;;;;;;;;;;;21.60;39.60;;;;;;471853;253;1113;-69
2021/05/01 07:41:48;;;;;;;;;;;21.50;39.60;;;;;;471846;253;2174;-68
2021/05/01 07:43:47;;;;;;;;;;;21.50;39.60;;;;;;471621;253;1416;-68
2021/05/01 07:45:48;;;;;;;;;;;21.60;39.70;;;;;;471866;253;1196;-68
2021/05/01 07:47:49;;;;;;;;;;;21.60;39.60;;;;;;471898;253;1148;-68
2021/05/01 07:49:50;;;;;;;;;;;21.70;39.40;;;;;;471813;253;980;-68
2021/05/01 07:51:52;;;;;;;;;;;21.70;39.60;;;;;;471778;253;1232;-68
2021/05/01 07:53:53;;;;;;;;;;;21.70;39.50;;;;;;471767;253;976;-68
2021/05/01 07:55:54;;;;;;;;;;;21.70;39.50;;;;;;471837;253;1163;-68
2021/05/01 07:57:55;;;;;;;;;;;21.70;39.50;;;;;;471744;253;1066;-68
2021/05/01 07:59:57;;;;;;;;;;;21.80;39.50;;;;;;471790;248;1270;-68
2021/05/01 08:01:58;;;;;;;;;;;21.80;39.40;;;;;;471872;253;2195;-68
2021/05/01 08:03:59;;;;;;;;;;;21.70;39.50;;;;;;471870;253;1045;-68
2021/05/01 08:06:01;;;;;;;;;;;21.70;39.50;;;;;;471853;253;1026;-68
2021/05/01 08:08:02;;;;;;;;;;;21.70;39.60;;;;;;471816;253;1116;-68
2021/05/01 08:10:03;;;;;;;;;;;21.70;39.50;;;;;;471841;253;976;-68
2021/05/01 08:12:04;;;;;;;;;;;21.70;39.60;;;;;;471854;253;1319;-69
2021/05/01 08:14:06;;;;;;;;;;;21.60;39.70;;;;;;471906;253;1226;-68
2021/05/01 08:16:07;;;;;;;;;;;21.60;39.80;;;;;;471733;253;1048;-68
2021/05/01 08:18:08;;;;;;;;;;;21.70;39.80;;;;;;471847;253;1042;-68
2021/05/01 08:20:10;;;;;;;;;;;21.70;39.60;;;;;;471844;253;1059;-68
2021/05/01 08:22:11;;;;;;;;;;;21.80;39.50;;;;;;471751;253;2203;-68
2021/05/01 08:24:12;;;;;;;;;;;21.70;39.60;;;;;;471826;253;1096;-68
2021/05/01 08:26:13;;;;;;;;;;;21.70;39.70;;;;;;471818;253;1230;-69
2021/05/01 08:28:16;;;;;;;;;;;21.70;39.80;;;;;;471883;253;970;-70
2021/05/01 08:30:17;;;;;;;;;;;21.70;39.70;;;;;;471727;253;1592;-68
2021/05/01 08:32:17;;;;;;;;;;;21.70;39.80;;;;;;471797;253;1259;-68
2021/05/01 08:34:19;;;;;;;;;;;21.70;40.00;;;;;;471893;253;1070;-68
2021/05/01 08:36:20;;;;;;;;;;;21.60;40.00;;;;;;471777;253;1342;-68
2021/05/01 08:38:21;;;;;;;;;;;21.70;40.10;;;;;;471900;253;1080;-69
2021/05/01 08:40:22;;;;;;;;;;;21.70;39.90;;;;;;471839;253;974;-68
2021/05/01 08:42:24;;;;;;;;;;;21.70;39.80;;;;;;471723;253;2206;-69
2021/05/01 08:44:25;;;;;;;;;;;21.70;39.90;;;;;;471781;253;967;-68
2021/05/01 08:46:27;;;;;;;;;;;21.70;40.00;;;;;;471722;253;1419;-69
2021/05/01 08:48:28;;;;;;;;;;;21.70;40.00;;;;;;471773;253;1053;-69
2021/05/01 08:50:30;;;;;;;;;;;21.70;39.90;;;;;;471731;253;977;-68
2021/05/01 08:52:31;;;;;;;;;;;21.70;40.00;;;;;;471749;253;1317;-68
2021/05/01 08:54:32;;;;;;;;;;;21.70;40.20;;;;;;471860;253;1050;-68
2021/05/01 08:56:34;;;;;;;;;;;21.60;40.20;;;;;;471821;253;1146;-69
2021/05/01 08:58:35;;;;;;;;;;;21.70;40.10;;;;;;471922;253;1039;-68
2021/05/01 09:00:36;;;;;;;;;;;21.60;40.20;;;;;;471906;253;1056;-69
2021/05/01 09:02:38;;;;;;;;;;;21.70;40.20;;;;;;471800;253;2194;-68
2021/05/01 09:04:39;;;;;;;;;;;21.80;39.90;;;;;;471801;253;1049;-68
2021/05/01 09:06:40;;;;;;;;;;;21.60;40.20;;;;;;471774;252;1271;-68
2021/05/01 09:08:41;;;;;;;;;;;21.60;40.20;;;;;;471829;253;980;-68
2021/05/01 09:10:43;;;;;;;;;;;21.80;40.10;;;;;;471767;253;1126;-68
2021/05/01 09:12:45;;;;;;;;;;;21.70;40.10;;;;;;471879;253;1217;-68
2021/05/01 09:14:45;;;;;;;;;;;21.80;40.10;;;;;;471745;253;1510;-68
2021/05/01 09:16:47;;;;;;;;;;;21.70;40.10;;;;;;471798;253;1463;-68
2021/05/01 09:18:50;;;;;;;;;;;21.70;40.20;;;;;;471864;253;1021;-68
2021/05/01 09:20:49;;;;;;;;;;;21.70;40.30;;;;;;471705;249;1412;-69
2021/05/01 09:22:51;;;;;;;;;;;21.60;40.20;;;;;;471816;253;2211;-68
2021/05/01 09:24:52;;;;;;;;;;;21.60;40.50;;;;;;471913;253;1086;-68
2021/05/01 09:26:53;;;;;;;;;;;21.60;40.50;;;;;;471793;253;1270;-69
2021/05/01 09:28:55;;;;;;;;;;;21.50;40.60;;;;;;471889;253;997;-68
2021/05/01 09:30:56;;;;;;;;;;;21.50;40.50;;;;;;471814;253;1579;-68
2021/05/01 09:32:57;;;;;;;;;;;21.60;40.60;;;;;;471868;253;1214;-68
2021/05/01 09:34:58;;;;;;;;;;;21.60;40.60;;;;;;471840;253;1055;-68
2021/05/01 09:37:00;;;;;;;;;;;21.50;40.70;;;;;;471777;253;1219;-69
2021/05/01 09:39:01;;;;;;;;;;;21.50;40.80;;;;;;471792;253;940;-68
2021/05/01 09:41:02;;;;;;;;;;;21.40;41.00;;;;;;471790;253;1219;-69
2021/05/01 09:43:04;;;;;;;;;;;21.40;41.00;;;;;;471838;253;2186;-69
2021/05/01 09:45:05;;;;;;;;;;;21.30;41.10;;;;;;471764;253;972;-68
2021/05/01 09:47:06;;;;;;;;;;;21.40;41.00;;;;;;471840;253;1163;-68
2021/05/01 09:49:07;;;;;;;;;;;21.40;41.10;;;;;;471851;253;1012;-68
2021/05/01 09:51:09;;;;;;;;;;;21.40;41.10;;;;;;471860;253;989;-68
2021/05/01 09:53:12;;;;;;;;;;;21.50;40.90;;;;;;471914;253;978;-68
2021/05/01 09:55:12;;;;;;;;;;;21.40;40.90;;;;;;471753;253;1430;-69
2021/05/01 09:57:13;;;;;;;;;;;21.50;41.00;;;;;;471838;252;1345;-70
2021/05/01 09:59:15;;;;;;;;;;;21.50;40.70;;;;;;471798;253;1091;-68
2021/05/01 10:01:16;;;;;;;;;;;21.50;40.70;;;;;;471797;253;1334;-69
2021/05/01 10:03:17;;;;;;;;;;;21.50;40.70;;;;;;471814;253;2210;-68
2021/05/01 10:05:19;;;;;;;;;;;21.50;40.70;;;;;;471695;253;1067;-68
2021/05/01 10:07:20;;;;;;;;;;;21.40;40.90;;;;;;471657;253;1110;-68
2021/05/01 10:09:21;;;;;;;;;;;21.40;40.90;;;;;;471741;253;1110;-68
2021/05/01 10:11:23;;;;;;;;;;;21.40;41.00;;;;;;471787;253;1066;-68
2021/05/01 10:13:24;;;;;;;;;;;21.40;40.90;;;;;;471830;253;1326;-70
2021/05/01 10:15:26;;;;;;;;;;;21.50;40.80;;;;;;471841;253;1092;-68
2021/05/01 10:17:27;;;;;;;;;;;21.50;40.90;;;;;;471828;253;1123;-68
2021/05/01 10:19:28;;;;;;;;;;;21.50;40.90;;;;;;471786;253;958;-68
2021/05/01 10:21:29;;;;;;;;;;;21.40;41.00;;;;;;471769;253;1285;-69
2021/05/01 10:23:31;;;;;;;;;;;21.40;40.90;;;;;;471795;253;2143;-68
2021/05/01 10:25:33;;;;;;;;;;;21.40;41.00;;;;;;471826;253;1165;-68
2021/05/01 10:27:33;;;;;;;;;;;21.40;41.10;;;;;;471667;253;1451;-68
2021/05/01 10:29:37;;;;;;;;;;;21.40;41.10;;;;;;471807;253;1197;-68
2021/05/01 10:31:36;;;;;;;;;;;21.40;41.20;;;;;;471573;253;1449;-68
2021/05/01 10:33:39;;;;;;;;;;;21.50;41.00;;;;;;471728;253;1125;-68
2021/05/01 10:35:38;;;;;;;;;;;21.40;41.00;;;;;;471780;253;1309;-68
2021/05/01 10:37:40;;;;;;;;;;;21.40;41.00;;;;;;471754;253;988;-68
2021/05/01 10:39:41;;;;;;;;;;;21.40;41.00;;;;;;471767;253;1004;-68
2021/05/01 10:41:42;;;;;;;;;;;21.40;41.00;;;;;;471948;253;993;-68
2021/05/01 10:43:44;;;;;;;;;;;21.40;41.00;;;;;;471817;253;2131;-68
2021/05/01 10:45:45;;;;;;;;;;;21.40;41.00;;;;;;471835;253;1200;-68
2021/05/01 10:47:46;;;;;;;;;;;21.30;41.10;;;;;;471787;253;1298;-68
2021/05/01 10:49:48;;;;;;;;;;;21.40;41.00;;;;;;471848;253;1039;-68
2021/05/01 10:51:51;;;;;;;;;;;21.50;41.00;;;;;;471817;253;1293;-68
2021/05/01 10:53:51;;;;;;;;;;;21.50;41.00;;;;;;471783;249;1509;-69
2021/05/01 10:55:52;;;;;;;;;;;21.40;41.30;;;;;;471787;253;1046;-68
2021/05/01 10:57:53;;;;;;;;;;;21.40;41.30;;;;;;471714;253;1359;-68
2021/05/01 10:59:54;;;;;;;;;;;21.50;41.10;;;;;;471800;253;1204;-69
2021/05/01 11:01:57;;;;;;;;;;;21.50;40.90;;;;;;471786;253;1225;-68
2021/05/01 11:03:57;;;;;;;;;;;21.50;40.90;;;;;;471668;253;2206;-68
2021/05/01 11:05:58;;;;;;;;;;;21.60;40.80;;;;;;471773;253;1240;-70
2021/05/01 11:08:00;;;;;;;;;;;21.40;41.00;;;;;;471823;249;1162;-69
2021/05/01 11:10:01;;;;;;;;;;;21.40;41.10;;;;;;471829;253;1077;-68
2021/05/01 11:12:02;;;;;;;;;;;21.50;41.00;;;;;;471860;253;1221;-68
2021/05/01 11:14:03;;;;;;;;;;;21.50;41.20;;;;;;471832;253;1157;-68
2021/05/01 11:16:05;;;;;;;;;;;21.50;41.20;;;;;;471732;253;1203;-69
2021/05/01 11:18:06;;;;;;;;;;;21.50;41.00;;;;;;471827;253;1045;-68
2021/05/01 11:20:07;;;;;;;;;;;21.50;41.00;;;;;;471796;253;982;-68
2021/05/01 11:22:09;;;;;;;;;;;21.50;40.90;;;;;;471696;253;1314;-69
2021/05/01 11:24:10;;;;;;;;;;;21.60;40.80;;;;;;471792;253;2159;-68
2021/05/01 11:26:11;;;;;;;;;;;21.60;40.90;;;;;;471780;253;1221;-68
2021/05/01 11:28:13;;;;;;;;;;;21.60;40.80;;;;;;471792;253;1029;-68
2021/05/01 11:30:14;;;;;;;;;;;21.60;41.00;;;;;;471814;253;1200;-68
2021/05/01 11:32:15;;;;;;;;;;;21.50;41.00;;;;;;471861;253;1136;-68
2021/05/01 11:34:17;;;;;;;;;;;21.50;41.00;;;;;;471867;253;1117;-68
2021/05/01 11:36:20;;;;;;;;;;;21.50;40.90;;;;;;471796;252;1322;-68
2021/05/01 11:38:19;;;;;;;;;;;21.60;40.80;;;;;;471755;253;1428;-68
2021/05/01 11:40:21;;;;;;;;;;;21.60;40.80;;;;;;471861;253;975;-68
2021/05/01 11:42:22;;;;;;;;;;;21.50;40.80;;;;;;471750;253;1458;-68
2021/05/01 11:44:23;;;;;;;;;;;21.50;40.80;;;;;;471929;253;2194;-68
2021/05/01 11:46:24;;;;;;;;;;;21.60;40.80;;;;;;471764;253;1377;-68
2021/05/01 11:48:26;;;;;;;;;;;21.50;40.90;;;;;;471821;253;1139;-68
2021/05/01 11:50:27;;;;;;;;;;;21.40;41.00;;;;;;471759;253;1099;-69
2021/05/01 11:52:28;;;;;;;;;;;21.40;41.00;;;;;;471708;253;1145;-68
2021/05/01 11:54:29;;;;;;;;;;;21.50;41.00;;;;;;471853;253;984;-69
2021/05/01 11:56:31;;;;;;;;;;;21.50;41.00;;;;;;471768;253;1249;-69
2021/05/01 11:58:32;;;;;;;;;;;21.50;40.80;;;;;;471828;253;1057;-68